sensor_id;sensor_type;location;lat;lon;timestamp;pressure;altitude;pressure_sealevel;temperature;humidity
37860;BME280;23698;52.014;5.190;2023-05-20T05:02:36;102372.66;;;16.72;100.00
37860;BME280;23698;52.014;5.190;2023-05-20T05:05:22;102376.09;;;16.81;100.00
37860;BME280;23698;52.014;5.190;2023-05-20T05:08:10;102372.63;;;17.15;100.00
37860;BME280;23698;52.014;5.190;2023-05-20T05:11:04;102374.53;;;17.15;100.00
37860;BME280;23698;52.014;5.190;2023-05-20T05:13:51;102377.25;;;16.50;100.00
37860;BME280;23698;52.014;5.190;2023-05-20T08:15:30;102296.03;;;22.53;100.00
37860;BME280;23698;52.014;5.190;2023-05-20T08:18:19;102296.34;;;23.10;100.00
37860;BME280;23698;52.014;5.190;2023-05-20T08:21:06;102291.44;;;22.16;100.00
37860;BME280;23698;52.014;5.190;2023-05-20T08:23:53;102307.38;;;23.34;97.41
37860;BME280;23698;52.014;5.190;2023-05-20T08:26:40;102293.78;;;23.44;96.84
37860;BME280;23698;52.014;5.190;2023-05-20T08:29:28;102289.22;;;24.19;95.75
37860;BME280;23698;52.014;5.190;2023-05-20T08:32:17;102289.19;;;24.31;86.95
37860;BME280;23698;52.014;5.190;2023-05-20T08:35:05;102286.16;;;24.49;90.33
37860;BME280;23698;52.014;5.190;2023-05-20T08:37:53;102275.78;;;24.74;82.71
37860;BME280;23698;52.014;5.190;2023-05-20T08:40:40;102283.06;;;23.48;82.72
37860;BME280;23698;52.014;5.190;2023-05-20T08:43:27;102270.63;;;24.48;79.33
37860;BME280;23698;52.014;5.190;2023-05-20T08:46:16;102278.38;;;23.01;85.31
37860;BME280;23698;52.014;5.190;2023-05-20T08:49:05;102268.19;;;23.13;86.52
37860;BME280;23698;52.014;5.190;2023-05-20T08:51:52;102269.38;;;22.94;79.43
37860;BME280;23698;52.014;5.190;2023-05-20T08:54:43;102262.19;;;21.97;85.69
37860;BME280;23698;52.014;5.190;2023-05-20T08:57:30;102265.56;;;21.99;100.00
37860;BME280;23698;52.014;5.190;2023-05-20T09:00:18;102261.44;;;22.62;86.96
37860;BME280;23698;52.014;5.190;2023-05-20T09:03:07;102257.13;;;23.13;81.63
37860;BME280;23698;52.014;5.190;2023-05-20T09:06:07;102250.31;;;23.56;75.80
37860;BME280;23698;52.014;5.190;2023-05-20T09:08:53;102245.78;;;23.91;74.91
37860;BME280;23698;52.014;5.190;2023-05-20T09:11:46;102256.22;;;24.63;68.15
37860;BME280;23698;52.014;5.190;2023-05-20T09:14:33;102256.31;;;21.93;91.76
37860;BME280;23698;52.014;5.190;2023-05-20T09:17:20;102250.88;;;21.86;97.60
37860;BME280;23698;52.014;5.190;2023-05-20T09:20:08;102245.91;;;22.07;93.79
37860;BME280;23698;52.014;5.190;2023-05-20T09:23:00;102246.63;;;22.44;98.00
37860;BME280;23698;52.014;5.190;2023-05-20T09:25:48;102249.66;;;22.67;98.13
37860;BME280;23698;52.014;5.190;2023-05-20T09:28:35;102240.41;;;22.73;90.62
37860;BME280;23698;52.014;5.190;2023-05-20T09:31:25;102250.56;;;21.95;92.84
37860;BME280;23698;52.014;5.190;2023-05-20T09:34:13;102229.72;;;22.22;89.86
37860;BME280;23698;52.014;5.190;2023-05-20T09:37:00;102234.59;;;22.09;88.73
37860;BME280;23698;52.014;5.190;2023-05-20T09:39:56;102229.19;;;21.72;96.96
37860;BME280;23698;52.014;5.190;2023-05-20T09:42:49;102229.66;;;22.29;85.59
37860;BME280;23698;52.014;5.190;2023-05-20T09:45:36;102230.94;;;22.27;85.33
37860;BME280;23698;52.014;5.190;2023-05-20T09:48:23;102225.50;;;22.62;81.46
37860;BME280;23698;52.014;5.190;2023-05-20T09:51:10;102216.72;;;22.89;85.63
37860;BME280;23698;52.014;5.190;2023-05-20T09:53:58;102218.53;;;22.59;83.59
37860;BME280;23698;52.014;5.190;2023-05-20T09:56:46;102224.56;;;21.84;82.30
37860;BME280;23698;52.014;5.190;2023-05-20T09:59:36;102219.47;;;21.99;86.33
37860;BME280;23698;52.014;5.190;2023-05-20T10:02:23;102220.94;;;23.15;79.93
37860;BME280;23698;52.014;5.190;2023-05-20T10:05:13;102217.31;;;22.91;82.13
37860;BME280;23698;52.014;5.190;2023-05-20T10:08:21;102225.16;;;23.06;78.47
37860;BME280;23698;52.014;5.190;2023-05-20T10:11:17;102221.06;;;22.96;74.77
37860;BME280;23698;52.014;5.190;2023-05-20T10:14:21;102210.75;;;23.44;75.38
37860;BME280;23698;52.014;5.190;2023-05-20T11:52:28;102109.09;;;26.66;57.71
37860;BME280;23698;52.014;5.190;2023-05-20T11:55:15;102122.19;;;25.19;62.52
37860;BME280;23698;52.014;5.190;2023-05-20T11:58:02;102115.31;;;25.76;61.03
37860;BME280;23698;52.014;5.190;2023-05-20T12:00:48;102115.31;;;26.88;59.54
37860;BME280;23698;52.014;5.190;2023-05-20T12:03:43;102102.16;;;27.57;56.72
37860;BME280;23698;52.014;5.190;2023-05-20T12:06:30;102100.81;;;27.85;57.07
37860;BME280;23698;52.014;5.190;2023-05-20T12:09:18;102102.97;;;27.32;54.97
37860;BME280;23698;52.014;5.190;2023-05-20T12:12:05;102104.69;;;25.95;58.41
37860;BME280;23698;52.014;5.190;2023-05-20T12:14:53;102093.81;;;27.42;57.62
37860;BME280;23698;52.014;5.190;2023-05-20T12:17:44;102102.91;;;25.56;57.43
37860;BME280;23698;52.014;5.190;2023-05-20T12:20:32;102094.56;;;26.59;57.50
37860;BME280;23698;52.014;5.190;2023-05-20T12:23:33;102096.84;;;26.24;59.85
37860;BME280;23698;52.014;5.190;2023-05-20T12:26:42;102102.53;;;25.75;65.10
37860;BME280;23698;52.014;5.190;2023-05-20T12:29:48;102104.53;;;25.52;58.57
37860;BME280;23698;52.014;5.190;2023-05-20T12:32:39;102098.03;;;26.38;58.66
37860;BME280;23698;52.014;5.190;2023-05-20T12:35:35;102105.50;;;25.36;63.36
37860;BME280;23698;52.014;5.190;2023-05-20T12:38:23;102102.63;;;26.12;65.89
37860;BME280;23698;52.014;5.190;2023-05-20T12:41:10;102095.81;;;26.83;65.96
37860;BME280;23698;52.014;5.190;2023-05-20T12:43:58;102094.25;;;25.80;63.16
37860;BME280;23698;52.014;5.190;2023-05-20T12:46:44;102086.75;;;26.55;61.14
37860;BME280;23698;52.014;5.190;2023-05-20T12:49:31;102091.16;;;27.04;64.13
37860;BME280;23698;52.014;5.190;2023-05-20T12:52:18;102087.28;;;27.05;61.04
37860;BME280;23698;52.014;5.190;2023-05-20T12:55:08;102084.78;;;25.76;60.85
37860;BME280;23698;52.014;5.190;2023-05-20T12:57:58;102078.63;;;23.51;81.26
37860;BME280;23698;52.014;5.190;2023-05-20T13:00:46;102087.13;;;26.27;68.47
37860;BME280;23698;52.014;5.190;2023-05-20T13:03:36;102074.22;;;26.10;65.52
37860;BME280;23698;52.014;5.190;2023-05-20T13:06:23;102074.34;;;25.61;62.76
37860;BME280;23698;52.014;5.190;2023-05-20T13:09:10;102078.53;;;26.28;60.48
37860;BME280;23698;52.014;5.190;2023-05-20T13:11:57;102067.84;;;25.77;64.26
37860;BME280;23698;52.014;5.190;2023-05-20T13:14:44;102074.50;;;26.09;66.10
37860;BME280;23698;52.014;5.190;2023-05-20T13:17:32;102068.06;;;26.99;59.68
37860;BME280;23698;52.014;5.190;2023-05-20T13:20:18;102062.56;;;27.19;61.99
37860;BME280;23698;52.014;5.190;2023-05-20T13:23:06;102071.38;;;26.00;62.30
37860;BME280;23698;52.014;5.190;2023-05-20T13:25:55;102068.06;;;26.41;62.34
37860;BME280;23698;52.014;5.190;2023-05-20T13:28:42;102070.94;;;25.81;66.64
37860;BME280;23698;52.014;5.190;2023-05-20T13:31:29;102061.50;;;26.62;63.17
37860;BME280;23698;52.014;5.190;2023-05-20T13:34:18;102061.56;;;26.72;61.62
37860;BME280;23698;52.014;5.190;2023-05-20T13:37:05;102056.22;;;25.86;65.74
37860;BME280;23698;52.014;5.190;2023-05-20T13:39:52;102061.06;;;26.38;66.76
37860;BME280;23698;52.014;5.190;2023-05-20T13:42:38;102064.75;;;26.49;64.31
37860;BME280;23698;52.014;5.190;2023-05-20T13:45:25;102063.75;;;25.85;66.36
37860;BME280;23698;52.014;5.190;2023-05-20T13:48:11;102062.22;;;24.91;72.39
37860;BME280;23698;52.014;5.190;2023-05-20T13:50:59;102055.13;;;24.56;78.25
37860;BME280;23698;52.014;5.190;2023-05-20T13:53:48;102050.19;;;25.29;71.57
37860;BME280;23698;52.014;5.190;2023-05-20T13:56:35;102047.94;;;25.04;74.03
37860;BME280;23698;52.014;5.190;2023-05-20T13:59:21;102051.63;;;26.39;65.37
37860;BME280;23698;52.014;5.190;2023-05-20T14:02:08;102040.25;;;25.98;66.45
37860;BME280;23698;52.014;5.190;2023-05-20T14:04:55;102030.94;;;26.14;64.64
37860;BME280;23698;52.014;5.190;2023-05-20T14:07:43;102031.13;;;25.70;69.78
37860;BME280;23698;52.014;5.190;2023-05-20T14:10:30;102025.13;;;26.26;69.56
37860;BME280;23698;52.014;5.190;2023-05-20T14:13:17;102033.38;;;26.59;60.41
37860;BME280;23698;52.014;5.190;2023-05-20T14:16:04;102022.13;;;25.90;64.87
37860;BME280;23698;52.014;5.190;2023-05-20T14:18:51;102018.63;;;27.57;60.16
37860;BME280;23698;52.014;5.190;2023-05-20T14:21:38;102018.91;;;26.04;63.76
37860;BME280;23698;52.014;5.190;2023-05-20T14:24:27;102006.56;;;26.32;61.44
37860;BME280;23698;52.014;5.190;2023-05-20T14:27:15;102003.78;;;26.95;63.67
37860;BME280;23698;52.014;5.190;2023-05-20T14:30:02;102006.75;;;26.73;64.44
37860;BME280;23698;52.014;5.190;2023-05-20T14:32:49;102011.97;;;26.59;61.51
37860;BME280;23698;52.014;5.190;2023-05-20T14:35:35;102010.75;;;26.40;64.59
37860;BME280;23698;52.014;5.190;2023-05-20T14:38:22;102002.66;;;27.01;64.10
37860;BME280;23698;52.014;5.190;2023-05-20T14:41:12;101997.31;;;26.74;61.75
37860;BME280;23698;52.014;5.190;2023-05-20T14:43:59;101988.16;;;26.84;61.37
37860;BME280;23698;52.014;5.190;2023-05-20T14:46:46;101991.91;;;27.56;56.43
37860;BME280;23698;52.014;5.190;2023-05-20T14:49:32;101986.78;;;25.86;61.21
37860;BME280;23698;52.014;5.190;2023-05-20T14:52:20;101990.44;;;27.12;62.74
37860;BME280;23698;52.014;5.190;2023-05-20T14:55:07;101979.78;;;26.63;59.79
37860;BME280;23698;52.014;5.190;2023-05-20T14:57:56;101982.59;;;23.69;86.94
37860;BME280;23698;52.014;5.190;2023-05-20T15:03:45;101979.13;;;23.11;100.00
37860;BME280;23698;52.014;5.190;2023-05-20T15:06:33;101970.59;;;23.00;100.00
37860;BME280;23698;52.014;5.190;2023-05-20T15:09:20;101969.28;;;23.03;100.00
37860;BME280;23698;52.014;5.190;2023-05-20T15:12:08;101961.97;;;23.77;100.00
37860;BME280;23698;52.014;5.190;2023-05-20T15:14:56;101964.59;;;23.04;100.00
37860;BME280;23698;52.014;5.190;2023-05-20T15:17:42;101970.50;;;22.95;100.00
37860;BME280;23698;52.014;5.190;2023-05-20T15:20:30;101958.88;;;22.93;100.00
37860;BME280;23698;52.014;5.190;2023-05-20T15:23:19;101963.88;;;23.25;100.00
37860;BME280;23698;52.014;5.190;2023-05-20T15:26:07;101961.22;;;23.30;100.00
37860;BME280;23698;52.014;5.190;2023-05-20T15:28:56;101951.22;;;23.46;100.00
37860;BME280;23698;52.014;5.190;2023-05-20T15:31:44;101955.94;;;23.63;100.00
37860;BME280;23698;52.014;5.190;2023-05-20T15:34:33;101955.09;;;23.62;100.00
37860;BME280;23698;52.014;5.190;2023-05-20T15:37:20;101956.75;;;23.12;100.00
37860;BME280;23698;52.014;5.190;2023-05-20T15:40:09;101955.94;;;22.71;100.00
37860;BME280;23698;52.014;5.190;2023-05-20T15:42:57;101946.09;;;22.35;100.00
37860;BME280;23698;52.014;5.190;2023-05-20T15:45:45;101944.44;;;23.20;100.00
37860;BME280;23698;52.014;5.190;2023-05-20T15:48:34;101950.31;;;22.95;100.00
37860;BME280;23698;52.014;5.190;2023-05-20T15:51:22;101946.38;;;23.19;94.72
37860;BME280;23698;52.014;5.190;2023-05-20T15:54:13;101948.06;;;23.54;100.00
37860;BME280;23698;52.014;5.190;2023-05-20T15:57:00;101943.09;;;23.40;100.00
37860;BME280;23698;52.014;5.190;2023-05-20T15:59:49;101939.28;;;22.95;100.00
37860;BME280;23698;52.014;5.190;2023-05-20T16:02:36;101938.50;;;22.99;100.00
37860;BME280;23698;52.014;5.190;2023-05-20T16:05:26;101941.22;;;22.54;100.00
37860;BME280;23698;52.014;5.190;2023-05-20T16:08:13;101936.66;;;22.88;100.00
37860;BME280;23698;52.014;5.190;2023-05-20T16:11:00;101924.91;;;22.81;100.00
37860;BME280;23698;52.014;5.190;2023-05-20T16:13:49;101930.84;;;22.44;100.00
37860;BME280;23698;52.014;5.190;2023-05-20T16:19:31;101916.47;;;22.06;100.00
37860;BME280;23698;52.014;5.190;2023-05-20T16:22:19;101916.28;;;22.77;100.00
37860;BME280;23698;52.014;5.190;2023-05-20T16:25:08;101916.25;;;23.74;98.61
37860;BME280;23698;52.014;5.190;2023-05-20T16:27:56;101911.38;;;22.68;100.00
37860;BME280;23698;52.014;5.190;2023-05-20T16:30:45;101914.53;;;22.31;100.00
37860;BME280;23698;52.014;5.190;2023-05-20T16:33:32;101921.41;;;21.93;100.00
37860;BME280;23698;52.014;5.190;2023-05-20T16:36:19;101915.88;;;21.93;100.00
37860;BME280;23698;52.014;5.190;2023-05-20T16:39:10;101921.22;;;21.71;100.00
37860;BME280;23698;52.014;5.190;2023-05-20T16:41:58;101917.09;;;21.73;100.00
37860;BME280;23698;52.014;5.190;2023-05-20T16:44:47;101913.75;;;21.59;100.00
37860;BME280;23698;52.014;5.190;2023-05-20T16:47:34;101910.72;;;21.96;100.00
37860;BME280;23698;52.014;5.190;2023-05-20T16:50:21;101913.19;;;22.74;100.00
37860;BME280;23698;52.014;5.190;2023-05-20T16:53:09;101917.03;;;22.20;100.00
37860;BME280;23698;52.014;5.190;2023-05-20T16:55:57;101915.81;;;22.40;100.00
37860;BME280;23698;52.014;5.190;2023-05-20T16:58:44;101917.69;;;23.09;100.00
37860;BME280;23698;52.014;5.190;2023-05-20T17:01:31;101913.50;;;23.57;100.00
37860;BME280;23698;52.014;5.190;2023-05-20T17:04:18;101917.06;;;23.74;91.16
37860;BME280;23698;52.014;5.190;2023-05-20T17:07:05;101917.44;;;23.27;94.84
37860;BME280;23698;52.014;5.190;2023-05-20T17:09:53;101923.22;;;21.87;100.00
37860;BME280;23698;52.014;5.190;2023-05-20T17:12:43;101917.53;;;22.17;100.00
37860;BME280;23698;52.014;5.190;2023-05-20T17:15:30;101916.44;;;23.84;100.00
37860;BME280;23698;52.014;5.190;2023-05-20T17:18:20;101921.25;;;23.38;100.00
37860;BME280;23698;52.014;5.190;2023-05-20T17:21:08;101914.38;;;24.41;90.29
37860;BME280;23698;52.014;5.190;2023-05-20T17:23:55;101928.56;;;22.41;100.00
37860;BME280;23698;52.014;5.190;2023-05-20T17:26:41;101919.22;;;23.33;94.01
37860;BME280;23698;52.014;5.190;2023-05-20T17:29:29;101924.34;;;22.96;95.71
37860;BME280;23698;52.014;5.190;2023-05-20T17:32:16;101931.41;;;22.75;100.00
37860;BME280;23698;52.014;5.190;2023-05-20T17:35:04;101929.78;;;23.36;97.96
37860;BME280;23698;52.014;5.190;2023-05-20T17:37:55;101919.81;;;22.90;94.92
37860;BME280;23698;52.014;5.190;2023-05-20T17:40:42;101929.88;;;23.25;96.76
37860;BME280;23698;52.014;5.190;2023-05-20T17:43:28;101934.56;;;23.24;100.00
37860;BME280;23698;52.014;5.190;2023-05-20T17:46:19;101936.53;;;22.02;100.00
37860;BME280;23698;52.014;5.190;2023-05-20T17:49:05;101937.13;;;22.68;100.00
37860;BME280;23698;52.014;5.190;2023-05-20T17:51:52;101936.97;;;23.37;99.37
37860;BME280;23698;52.014;5.190;2023-05-20T17:54:38;101934.88;;;24.18;84.44
37860;BME280;23698;52.014;5.190;2023-05-20T17:57:24;101942.69;;;24.21;84.46
37860;BME280;23698;52.014;5.190;2023-05-20T18:00:11;101937.63;;;23.79;88.82
37860;BME280;23698;52.014;5.190;2023-05-20T18:03:00;101940.44;;;21.35;100.00
37860;BME280;23698;52.014;5.190;2023-05-20T18:05:46;101947.81;;;24.12;91.19
37860;BME280;23698;52.014;5.190;2023-05-20T18:08:35;101953.53;;;22.46;100.00
37860;BME280;23698;52.014;5.190;2023-05-20T18:11:22;101959.06;;;22.46;100.00
37860;BME280;23698;52.014;5.190;2023-05-20T18:14:11;101951.22;;;23.46;91.29
37860;BME280;23698;52.014;5.190;2023-05-20T18:17:02;101955.84;;;23.41;94.23
37860;BME280;23698;52.014;5.190;2023-05-20T18:19:52;101956.19;;;23.61;89.31
37860;BME280;23698;52.014;5.190;2023-05-20T18:22:39;101965.28;;;22.53;100.00
37860;BME280;23698;52.014;5.190;2023-05-20T18:25:36;101965.66;;;22.86;100.00
37860;BME280;23698;52.014;5.190;2023-05-20T18:28:25;101964.34;;;23.68;95.83
37860;BME280;23698;52.014;5.190;2023-05-20T18:31:13;101967.31;;;22.87;100.00
37860;BME280;23698;52.014;5.190;2023-05-20T18:34:00;101961.38;;;22.95;100.00
37860;BME280;23698;52.014;5.190;2023-05-20T18:36:48;101967.19;;;23.56;94.24
37860;BME280;23698;52.014;5.190;2023-05-20T18:39:35;101964.41;;;24.73;80.23
37860;BME280;23698;52.014;5.190;2023-05-20T18:42:24;101965.31;;;23.45;91.47
37860;BME280;23698;52.014;5.190;2023-05-20T18:45:10;101970.47;;;22.26;100.00
37860;BME280;23698;52.014;5.190;2023-05-20T18:47:57;101956.84;;;23.51;92.90
37860;BME280;23698;52.014;5.190;2023-05-20T18:50:44;101956.34;;;21.99;100.00
37860;BME280;23698;52.014;5.190;2023-05-20T18:53:32;101954.06;;;21.48;100.00
37860;BME280;23698;52.014;5.190;2023-05-20T18:56:18;101948.78;;;21.59;100.00
37860;BME280;23698;52.014;5.190;2023-05-20T18:59:05;101948.91;;;21.76;100.00
37860;BME280;23698;52.014;5.190;2023-05-20T19:47:33;101987.56;;;24.23;91.82
37860;BME280;23698;52.014;5.190;2023-05-20T19:50:20;101987.59;;;24.45;91.48
37860;BME280;23698;52.014;5.190;2023-05-20T19:53:08;101979.94;;;23.91;94.20
37860;BME280;23698;52.014;5.190;2023-05-20T19:55:55;101982.47;;;24.15;96.71
37860;BME280;23698;52.014;5.190;2023-05-20T19:58:41;101992.31;;;23.37;100.00
37860;BME280;23698;52.014;5.190;2023-05-20T22:02:36;101928.34;;;17.39;100.00
37860;BME280;23698;52.014;5.190;2023-05-20T22:05:22;101933.59;;;17.40;100.00
37860;BME280;23698;52.014;5.190;2023-05-20T22:08:08;101931.94;;;17.46;100.00
37860;BME280;23698;52.014;5.190;2023-05-20T22:10:55;101931.28;;;17.44;100.00
37860;BME280;23698;52.014;5.190;2023-05-20T22:13:43;101928.94;;;17.94;100.00
